Time;durP1;ratioP1;P1;durP2;ratioP2;P2;SDS_P1;SDS_P2;PMS_P1;PMS_P2;Temp;Humidity;BMP_temperature;BMP_pressure;BME280_temperature;BME280_humidity;BME280_pressure;Samples;Min_cycle;Max_cycle;Signal;HPM_P1;HPM_P2
2023/06/28 00:00:29;;;;;;;1.38;0.30;;;16.20;99.90;;;;;;5005509;28;20495;-78
2023/06/28 00:02:55;;;;;;;0.95;0.30;;;16.10;99.90;;;;;;5005336;28;20085;-81
2023/06/28 00:05:21;;;;;;;0.70;0.20;;;16.20;99.90;;;;;;5005664;28;20041;-78
2023/06/28 00:07:47;;;;;;;1.63;0.38;;;16.10;99.90;;;;;;5004134;28;20026;-81
2023/06/28 00:10:13;;;;;;;1.58;0.25;;;16.10;99.90;;;;;;5005312;28;20026;-78
2023/06/28 00:12:39;;;;;;;2.58;0.30;;;16.10;99.90;;;;;;5007171;28;20026;-80
2023/06/28 00:15:05;;;;;;;1.25;0.30;;;16.00;99.90;;;;;;4989671;28;20403;-79
2023/06/28 00:17:31;;;;;;;1.35;0.32;;;16.00;99.90;;;;;;5001478;28;20052;-79
2023/06/28 00:19:58;;;;;;;1.58;0.30;;;15.90;99.90;;;;;;5034384;28;20034;-79
2023/06/28 00:22:29;;;;;;;1.35;0.40;;;16.00;99.90;;;;;;5017515;28;20104;-80
2023/06/28 00:24:59;;;;;;;0.95;0.30;;;16.00;99.90;;;;;;5000819;28;20042;-80
2023/06/28 00:27:29;;;;;;;1.33;0.25;;;16.10;99.90;;;;;;5019479;28;20034;-81
2023/06/28 00:29:58;;;;;;;1.05;0.25;;;16.10;99.90;;;;;;5005131;28;20033;-79
2023/06/28 00:32:25;;;;;;;1.92;0.20;;;16.10;99.90;;;;;;5015092;28;20030;-78
2023/06/28 00:34:51;;;;;;;1.70;0.30;;;16.10;99.90;;;;;;5005385;28;20033;-80
2023/06/28 00:37:19;;;;;;;1.05;0.30;;;16.00;99.90;;;;;;5032482;28;20030;-79
2023/06/28 00:39:45;;;;;;;1.38;0.20;;;16.00;99.90;;;;;;5035547;28;20179;-79
2023/06/28 00:42:11;;;;;;;0.93;0.20;;;16.10;99.90;;;;;;5001340;28;20023;-78
2023/06/28 00:44:37;;;;;;;1.42;0.30;;;16.00;99.90;;;;;;5033664;28;20471;-78
2023/06/28 00:47:06;;;;;;;1.98;0.30;;;16.00;99.90;;;;;;5018202;28;20557;-80
2023/06/28 00:49:35;;;;;;;1.33;0.20;;;16.00;99.90;;;;;;5003918;28;20018;-81
2023/06/28 00:52:06;;;;;;;2.30;0.70;;;16.00;99.90;;;;;;5006268;28;20049;-81
2023/06/28 00:54:32;;;;;;;2.25;0.30;;;16.00;99.90;;;;;;5003327;28;20056;-81
2023/06/28 00:56:59;;;;;;;1.63;0.28;;;16.00;99.90;;;;;;5002259;28;20049;-82
2023/06/28 00:59:26;;;;;;;1.75;0.20;;;16.00;99.90;;;;;;5004716;28;20037;-81
2023/06/28 01:01:53;;;;;;;1.65;0.30;;;16.00;99.90;;;;;;5006436;28;20034;-81
2023/06/28 01:04:19;;;;;;;0.98;0.30;;;16.00;99.90;;;;;;5032869;28;20030;-82
2023/06/28 01:06:51;;;;;;;2.00;0.50;;;16.00;99.90;;;;;;5003976;28;20030;-82
2023/06/28 01:09:19;;;;;;;2.42;0.40;;;15.90;99.90;;;;;;5030388;28;20061;-82
2023/06/28 01:11:50;;;;;;;1.10;0.30;;;15.90;99.90;;;;;;5001276;28;20072;-81
2023/06/28 01:14:16;;;;;;;2.58;0.40;;;15.90;99.90;;;;;;4998084;28;20034;-82
2023/06/28 01:16:42;;;;;;;2.20;0.38;;;15.90;99.90;;;;;;5004789;28;20026;-81
2023/06/28 01:19:15;;;;;;;1.77;0.30;;;15.90;99.90;;;;;;5006923;28;20117;-82
2023/06/28 01:21:44;;;;;;;2.22;0.40;;;15.90;99.90;;;;;;5005773;28;20057;-82
2023/06/28 01:24:11;;;;;;;2.10;0.40;;;15.90;99.90;;;;;;5003329;28;20526;-80
2023/06/28 01:26:38;;;;;;;3.00;0.30;;;15.90;99.90;;;;;;5005772;28;20042;-80
2023/06/28 01:29:05;;;;;;;2.85;0.50;;;15.90;99.90;;;;;;5020672;28;20060;-82
2023/06/28 01:31:30;;;;;;;1.55;0.30;;;15.90;99.90;;;;;;5031531;28;20643;-81
2023/06/28 01:33:57;;;;;;;3.17;0.30;;;15.90;99.90;;;;;;5000222;28;20034;-78
2023/06/28 01:36:22;;;;;;;2.28;0.30;;;15.90;99.90;;;;;;5007422;28;20207;-82
2023/06/28 01:38:49;;;;;;;3.92;0.40;;;15.90;99.90;;;;;;4993583;28;20569;-78
2023/06/28 01:41:15;;;;;;;2.35;0.30;;;16.00;99.90;;;;;;5003479;28;20288;-81
2023/06/28 01:43:41;;;;;;;1.10;0.40;;;16.00;99.90;;;;;;5007006;28;20026;-82
2023/06/28 01:46:08;;;;;;;1.02;0.30;;;15.90;99.90;;;;;;5007835;28;20398;-78
2023/06/28 01:48:34;;;;;;;1.73;0.32;;;16.00;99.90;;;;;;5004335;28;20022;-80
2023/06/28 01:51:00;;;;;;;2.10;0.35;;;16.00;99.90;;;;;;5004730;28;20034;-78
2023/06/28 01:53:26;;;;;;;1.48;0.30;;;16.00;99.90;;;;;;5016395;28;20033;-79
2023/06/28 01:55:52;;;;;;;0.95;0.30;;;16.00;99.90;;;;;;5008458;28;20501;-78
2023/06/28 01:58:17;;;;;;;1.30;0.30;;;16.00;99.90;;;;;;5007392;28;20085;-78
2023/06/28 02:00:43;;;;;;;0.75;0.30;;;16.00;99.90;;;;;;5007870;28;20477;-78
2023/06/28 02:03:09;;;;;;;1.42;0.30;;;16.00;99.90;;;;;;5008184;28;20034;-80
2023/06/28 02:05:35;;;;;;;1.08;0.30;;;16.00;99.90;;;;;;5006593;28;20041;-78
2023/06/28 02:08:04;;;;;;;2.00;0.23;;;16.00;99.90;;;;;;4988576;28;20018;-77
2023/06/28 02:10:31;;;;;;;1.08;0.30;;;16.00;99.90;;;;;;5004817;28;20034;-79
2023/06/28 02:12:56;;;;;;;0.90;0.30;;;16.00;99.90;;;;;;5035994;28;20482;-79
2023/06/28 02:15:23;;;;;;;1.63;0.30;;;16.00;99.90;;;;;;5006130;28;20031;-78
2023/06/28 02:17:49;;;;;;;2.38;0.30;;;16.00;99.90;;;;;;5020185;28;20026;-78
2023/06/28 02:20:15;;;;;;;1.00;0.30;;;16.00;99.90;;;;;;5001947;28;20391;-78
2023/06/28 02:22:41;;;;;;;0.75;0.20;;;16.00;99.90;;;;;;5009698;28;20104;-79
2023/06/28 02:25:07;;;;;;;2.38;0.30;;;15.90;99.90;;;;;;5007259;28;20073;-78
2023/06/28 02:27:32;;;;;;;2.78;0.30;;;15.90;99.90;;;;;;5008860;28;20033;-77
2023/06/28 02:29:58;;;;;;;1.30;0.30;;;15.90;99.90;;;;;;5008937;28;20080;-79
2023/06/28 02:32:25;;;;;;;0.98;0.20;;;15.90;99.90;;;;;;5003367;28;20027;-81
2023/06/28 02:34:50;;;;;;;1.42;0.30;;;15.90;99.90;;;;;;5009139;28;20030;-80
2023/06/28 02:37:16;;;;;;;2.22;0.30;;;16.00;99.90;;;;;;5017541;28;20037;-80
2023/06/28 02:39:42;;;;;;;1.95;0.30;;;16.00;99.90;;;;;;5007069;28;20494;-81
2023/06/28 02:42:08;;;;;;;1.65;0.30;;;16.00;99.90;;;;;;5023808;28;20037;-81
2023/06/28 02:44:37;;;;;;;0.90;0.30;;;16.00;99.90;;;;;;5001073;28;20057;-81
2023/06/28 02:47:07;;;;;;;1.23;0.22;;;16.00;99.90;;;;;;5036160;28;20094;-80
2023/06/28 02:49:33;;;;;;;1.38;0.28;;;16.00;99.90;;;;;;5015377;28;20046;-79
2023/06/28 02:51:58;;;;;;;1.27;0.20;;;16.00;99.90;;;;;;5004070;28;20061;-80
2023/06/28 02:54:24;;;;;;;1.50;0.30;;;16.00;99.90;;;;;;4993287;28;20026;-79
2023/06/28 02:56:50;;;;;;;1.52;0.20;;;16.00;99.90;;;;;;5005036;28;20045;-79
2023/06/28 02:59:41;;;;;;;1.83;0.20;;;15.90;99.90;;;;;;4995704;28;20057;-80
2023/06/28 03:02:10;;;;;;;1.33;0.20;;;16.00;99.90;;;;;;5008145;28;20053;-81
2023/06/28 03:04:39;;;;;;;2.45;0.30;;;15.90;99.90;;;;;;5033053;28;20029;-81
2023/06/28 03:07:12;;;;;;;0.82;0.20;;;15.90;99.90;;;;;;5017894;28;20080;-81
2023/06/28 03:09:37;;;;;;;1.13;0.20;;;15.80;99.90;;;;;;5034822;28;20130;-81
2023/06/28 03:12:03;;;;;;;0.85;0.20;;;15.90;99.90;;;;;;5007854;28;20323;-80
2023/06/28 03:14:29;;;;;;;1.10;0.20;;;15.90;99.90;;;;;;5019849;28;20040;-79
2023/06/28 03:16:55;;;;;;;1.95;0.30;;;15.90;99.90;;;;;;5006579;28;20041;-79
2023/06/28 03:19:21;;;;;;;1.08;0.30;;;15.90;99.90;;;;;;5019377;28;20044;-80
2023/06/28 03:21:46;;;;;;;1.17;0.20;;;15.90;99.90;;;;;;5007370;28;20058;-79
2023/06/28 03:24:12;;;;;;;1.35;0.20;;;15.90;99.90;;;;;;5023351;28;20022;-79
2023/06/28 03:26:38;;;;;;;1.33;0.30;;;15.80;99.90;;;;;;5007185;28;20094;-80
2023/06/28 03:29:03;;;;;;;1.25;0.30;;;15.80;99.90;;;;;;5001578;28;20423;-79
2023/06/28 03:31:31;;;;;;;3.42;0.30;;;15.80;99.90;;;;;;4999745;28;20057;-79
2023/06/28 03:33:58;;;;;;;1.60;0.20;;;15.80;99.90;;;;;;5008054;28;20078;-79
2023/06/28 03:36:27;;;;;;;1.17;0.20;;;15.80;99.90;;;;;;5034983;28;20517;-79
2023/06/28 03:38:53;;;;;;;1.95;0.30;;;15.70;99.90;;;;;;5003657;28;20037;-80
2023/06/28 03:41:19;;;;;;;1.15;0.20;;;15.70;99.90;;;;;;5007705;28;20026;-79
2023/06/28 03:43:45;;;;;;;2.47;0.30;;;15.80;99.90;;;;;;5018368;28;20509;-79
2023/06/28 03:46:11;;;;;;;1.23;0.30;;;15.70;99.90;;;;;;5005347;28;20037;-79
2023/06/28 03:48:37;;;;;;;1.80;0.30;;;15.60;99.90;;;;;;5002683;28;20026;-80
2023/06/28 03:51:03;;;;;;;1.35;0.30;;;15.60;99.90;;;;;;5004081;28;20029;-78
2023/06/28 03:53:28;;;;;;;1.20;0.40;;;15.60;99.90;;;;;;5003147;28;20119;-80
2023/06/28 03:55:54;;;;;;;1.73;0.32;;;15.60;99.90;;;;;;5001753;28;20022;-80
2023/06/28 03:58:20;;;;;;;1.05;0.30;;;15.50;99.90;;;;;;5004472;28;20037;-80
2023/06/28 04:00:46;;;;;;;3.08;0.40;;;15.40;99.90;;;;;;4986101;28;20027;-78
2023/06/28 04:03:11;;;;;;;2.08;0.40;;;15.40;99.90;;;;;;5004124;28;20030;-80
2023/06/28 04:05:37;;;;;;;2.45;0.50;;;15.40;99.90;;;;;;5004984;28;20038;-80
2023/06/28 04:08:03;;;;;;;1.98;0.38;;;15.40;99.90;;;;;;5002247;28;20463;-79
2023/06/28 04:10:29;;;;;;;3.47;0.50;;;15.50;99.90;;;;;;5034847;28;20034;-80
2023/06/28 04:12:54;;;;;;;2.95;0.45;;;15.50;99.90;;;;;;5020279;28;20112;-81
2023/06/28 04:15:21;;;;;;;3.25;0.40;;;15.50;99.90;;;;;;5003318;28;20061;-79
2023/06/28 04:17:46;;;;;;;1.00;0.30;;;15.40;99.90;;;;;;5006479;28;20026;-78
2023/06/28 04:20:12;;;;;;;1.73;0.30;;;15.50;99.90;;;;;;5003218;28;20029;-78
2023/06/28 04:22:38;;;;;;;1.50;0.25;;;15.60;99.90;;;;;;4998361;28;20530;-79
2023/06/28 04:25:04;;;;;;;2.15;0.20;;;15.60;99.90;;;;;;5002515;28;20026;-78
2023/06/28 04:27:30;;;;;;;4.43;0.40;;;15.50;99.90;;;;;;5005455;28;20036;-79
2023/06/28 04:29:55;;;;;;;1.63;0.25;;;15.50;99.90;;;;;;5004010;28;20030;-79
2023/06/28 04:32:25;;;;;;;1.20;0.30;;;15.60;99.90;;;;;;5004372;28;20034;-78
2023/06/28 04:34:53;;;;;;;0.52;0.20;;;15.50;99.90;;;;;;4999624;28;20223;-79
2023/06/28 04:37:27;;;;;;;0.63;0.20;;;15.50;99.90;;;;;;5014681;28;20094;-78
2023/06/28 04:39:54;;;;;;;1.45;0.28;;;15.50;99.90;;;;;;5034897;28;20030;-81
2023/06/28 04:42:20;;;;;;;0.60;0.20;;;15.50;99.90;;;;;;5005466;28;20120;-78
2023/06/28 04:44:50;;;;;;;1.02;0.20;;;15.50;99.90;;;;;;5032616;28;20025;-79
2023/06/28 04:47:17;;;;;;;1.50;0.20;;;15.40;99.90;;;;;;4984724;28;20057;-78
2023/06/28 04:49:48;;;;;;;0.80;0.20;;;15.40;99.90;;;;;;5005140;28;20407;-79
2023/06/28 04:52:19;;;;;;;0.63;0.20;;;15.40;99.90;;;;;;5002769;28;20034;-78
2023/06/28 04:54:48;;;;;;;1.90;0.20;;;15.40;99.90;;;;;;5000961;28;20026;-79
2023/06/28 04:57:15;;;;;;;1.27;0.20;;;15.30;99.90;;;;;;5005412;28;20084;-78
2023/06/28 04:59:42;;;;;;;1.25;0.20;;;15.40;99.90;;;;;;4999179;28;20038;-78
2023/06/28 05:02:09;;;;;;;1.05;0.20;;;15.30;99.90;;;;;;5004514;28;20041;-78
2023/06/28 05:04:37;;;;;;;1.35;0.20;;;15.30;99.90;;;;;;5030570;28;20102;-79
2023/06/28 05:07:04;;;;;;;0.77;0.20;;;15.40;99.90;;;;;;5002800;28;20033;-79
2023/06/28 05:09:34;;;;;;;1.40;0.30;;;15.30;99.90;;;;;;5031468;28;20032;-78
2023/06/28 05:12:01;;;;;;;1.42;0.30;;;15.20;99.90;;;;;;5022542;28;20117;-80
2023/06/28 05:14:29;;;;;;;1.98;0.40;;;15.20;99.90;;;;;;5002229;28;20037;-78
2023/06/28 05:16:55;;;;;;;1.80;0.30;;;15.30;99.90;;;;;;4991580;28;20023;-80
2023/06/28 05:19:22;;;;;;;2.38;0.40;;;15.30;99.90;;;;;;5023766;28;20371;-78
2023/06/28 05:21:48;;;;;;;2.70;0.40;;;15.40;99.90;;;;;;4993551;28;20049;-78
2023/06/28 05:24:18;;;;;;;1.25;0.30;;;15.50;99.90;;;;;;5023268;28;20056;-80
2023/06/28 05:26:44;;;;;;;2.22;0.30;;;15.50;99.90;;;;;;5039413;28;20046;-78
2023/06/28 05:29:10;;;;;;;1.08;0.30;;;15.50;99.90;;;;;;5009453;28;20030;-78
2023/06/28 05:31:37;;;;;;;1.42;0.40;;;15.50;99.90;;;;;;5007526;28;20482;-78
2023/06/28 05:34:03;;;;;;;1.90;0.40;;;15.50;99.90;;;;;;5023660;28;20110;-79
2023/06/28 05:36:28;;;;;;;1.00;0.40;;;15.60;99.90;;;;;;5040197;28;20563;-81
2023/06/28 05:38:56;;;;;;;3.15;0.50;;;15.60;99.90;;;;;;5009169;28;20096;-81
2023/06/28 05:41:21;;;;;;;1.05;0.35;;;15.50;99.90;;;;;;5021838;28;20132;-81
2023/06/28 05:43:48;;;;;;;2.40;0.40;;;15.50;99.90;;;;;;5018564;28;20034;-82
2023/06/28 05:46:14;;;;;;;2.40;0.40;;;15.60;99.90;;;;;;5034644;28;20431;-80
2023/06/28 05:48:40;;;;;;;1.55;0.40;;;15.60;99.90;;;;;;5009109;28;20018;-81
2023/06/28 05:51:12;;;;;;;1.70;0.40;;;15.70;99.90;;;;;;5007657;28;20478;-81
2023/06/28 05:53:38;;;;;;;1.75;0.30;;;15.80;99.90;;;;;;5020972;28;20033;-79
2023/06/28 05:56:05;;;;;;;1.58;0.32;;;15.80;99.90;;;;;;5008566;28;20030;-79
2023/06/28 05:58:31;;;;;;;1.20;0.30;;;15.90;99.90;;;;;;5007884;28;20394;-81
2023/06/28 06:00:56;;;;;;;2.83;0.50;;;15.80;99.90;;;;;;5023357;28;20025;-79
2023/06/28 06:03:23;;;;;;;1.92;0.40;;;15.70;99.90;;;;;;5002362;28;20141;-80
2023/06/28 06:05:49;;;;;;;1.33;0.38;;;15.80;99.90;;;;;;5005936;28;20038;-81
2023/06/28 06:08:15;;;;;;;3.70;0.40;;;15.80;99.90;;;;;;5007466;28;20084;-81
2023/06/28 06:10:41;;;;;;;1.95;0.40;;;15.80;99.90;;;;;;5024918;28;20129;-79
2023/06/28 06:13:06;;;;;;;3.45;0.40;;;15.80;99.90;;;;;;5008188;28;20567;-81
2023/06/28 06:15:32;;;;;;;2.97;0.50;;;15.80;99.90;;;;;;5019142;28;20039;-80
2023/06/28 06:17:58;;;;;;;2.00;0.40;;;15.70;99.90;;;;;;5002861;28;20033;-80
2023/06/28 06:20:23;;;;;;;1.10;0.30;;;15.60;99.90;;;;;;5019286;28;20359;-81
2023/06/28 06:22:49;;;;;;;1.63;0.45;;;15.80;99.90;;;;;;5005839;28;20125;-81
2023/06/28 06:25:15;;;;;;;3.10;0.40;;;15.60;99.90;;;;;;5009064;28;20034;-81
2023/06/28 06:27:41;;;;;;;1.17;0.30;;;15.70;99.90;;;;;;5008641;28;20033;-81
2023/06/28 06:30:10;;;;;;;1.55;0.30;;;15.80;99.90;;;;;;5008005;28;20081;-80
2023/06/28 06:32:36;;;;;;;1.45;0.38;;;15.80;99.90;;;;;;4991646;28;20462;-81
2023/06/28 06:35:01;;;;;;;1.33;0.30;;;15.70;99.90;;;;;;4991666;28;20026;-81
2023/06/28 06:37:27;;;;;;;1.63;0.30;;;15.70;99.90;;;;;;5034878;28;20487;-80
2023/06/28 06:39:56;;;;;;;1.70;0.30;;;15.80;99.90;;;;;;5020678;28;20061;-81
2023/06/28 06:42:21;;;;;;;2.15;0.40;;;15.80;99.90;;;;;;5037052;28;20072;-81
2023/06/28 06:44:47;;;;;;;3.88;0.40;;;15.80;99.90;;;;;;5007182;28;20431;-80
2023/06/28 06:47:13;;;;;;;1.50;0.30;;;15.80;99.90;;;;;;5008788;28;20026;-81
2023/06/28 06:49:38;;;;;;;3.20;0.40;;;15.90;99.90;;;;;;5004580;28;20053;-80
2023/06/28 06:52:04;;;;;;;2.55;0.30;;;16.00;99.90;;;;;;5020098;28;20088;-81
2023/06/28 06:54:30;;;;;;;1.00;0.30;;;16.10;99.90;;;;;;4998009;28;20384;-81
2023/06/28 06:56:57;;;;;;;2.30;0.30;;;16.10;99.90;;;;;;5006546;28;20029;-81
2023/06/28 06:59:23;;;;;;;2.47;0.40;;;16.10;99.90;;;;;;4983103;28;20034;-81
2023/06/28 07:01:53;;;;;;;1.52;0.38;;;16.20;99.90;;;;;;5003749;28;20030;-80
2023/06/28 07:04:21;;;;;;;3.40;0.50;;;16.10;99.90;;;;;;5019776;28;20026;-81
2023/06/28 07:06:47;;;;;;;1.40;0.40;;;16.20;99.90;;;;;;4999542;28;20030;-80
2023/06/28 07:09:14;;;;;;;1.85;0.40;;;16.10;99.90;;;;;;4981418;28;20030;-79
2023/06/28 07:11:40;;;;;;;1.63;0.47;;;16.10;99.90;;;;;;4998350;28;20037;-80
2023/06/28 07:14:06;;;;;;;4.70;0.43;;;16.10;99.90;;;;;;5005918;28;20033;-81
2023/06/28 07:16:31;;;;;;;2.38;0.40;;;16.30;99.90;;;;;;5005344;28;20026;-79
2023/06/28 07:18:57;;;;;;;4.55;0.40;;;16.30;99.90;;;;;;5007337;28;20109;-80
2023/06/28 07:21:23;;;;;;;2.67;0.68;;;16.20;99.90;;;;;;5002249;28;20091;-80
2023/06/28 07:23:48;;;;;;;3.70;0.60;;;16.10;99.90;;;;;;5037025;28;20026;-82
2023/06/28 07:26:14;;;;;;;2.17;0.60;;;16.10;99.90;;;;;;5019820;28;20449;-80
2023/06/28 07:28:41;;;;;;;1.77;0.60;;;16.10;99.90;;;;;;4999988;28;20394;-79
2023/06/28 07:31:06;;;;;;;3.65;0.60;;;16.10;99.90;;;;;;5004902;28;20080;-80
2023/06/28 07:33:32;;;;;;;3.33;0.88;;;16.10;99.90;;;;;;4979789;28;20030;-80
2023/06/28 07:35:58;;;;;;;3.08;0.90;;;16.30;99.90;;;;;;5003993;28;20034;-82
2023/06/28 07:38:24;;;;;;;2.78;0.80;;;16.40;99.90;;;;;;5017190;28;20033;-81
2023/06/28 07:40:50;;;;;;;2.90;0.65;;;16.30;99.90;;;;;;5005169;28;20124;-81
2023/06/28 07:43:17;;;;;;;2.13;0.60;;;16.40;99.90;;;;;;5004637;28;20025;-81
2023/06/28 07:45:43;;;;;;;3.95;0.73;;;16.50;99.90;;;;;;4986903;28;20441;-81
2023/06/28 07:48:09;;;;;;;2.00;0.80;;;16.50;99.90;;;;;;5019456;28;20033;-81
2023/06/28 07:50:36;;;;;;;3.47;0.65;;;16.50;99.90;;;;;;4994049;28;20052;-80
2023/06/28 07:53:02;;;;;;;3.97;1.15;;;16.50;99.90;;;;;;5003774;28;20033;-81
2023/06/28 07:55:29;;;;;;;2.72;0.77;;;16.50;99.90;;;;;;5019604;28;20033;-80
2023/06/28 07:57:58;;;;;;;2.17;0.60;;;16.70;99.90;;;;;;5002273;28;20324;-80
2023/06/28 08:00:27;;;;;;;3.15;0.80;;;16.80;99.90;;;;;;5000790;28;20045;-80
2023/06/28 08:02:52;;;;;;;1.83;0.50;;;16.80;99.90;;;;;;5002528;28;20054;-80
2023/06/28 08:05:19;;;;;;;3.55;0.88;;;16.90;99.90;;;;;;5001678;28;20104;-81
2023/06/28 08:07:46;;;;;;;2.78;0.60;;;16.90;99.90;;;;;;5015600;28;20412;-81
2023/06/28 08:10:12;;;;;;;1.45;0.60;;;16.90;99.90;;;;;;5002228;28;20087;-80
2023/06/28 08:12:37;;;;;;;4.85;1.00;;;17.00;99.90;;;;;;5004337;28;20025;-81
2023/06/28 08:15:04;;;;;;;2.65;0.82;;;16.90;99.90;;;;;;5005009;28;20030;-81
2023/06/28 08:17:29;;;;;;;5.43;0.65;;;16.90;99.90;;;;;;5004407;28;20443;-81
2023/06/28 08:19:55;;;;;;;5.05;1.38;;;16.90;99.90;;;;;;4987711;28;20030;-80
2023/06/28 08:22:21;;;;;;;5.20;0.80;;;16.80;99.90;;;;;;4995807;28;20081;-80
2023/06/28 08:24:48;;;;;;;2.92;0.95;;;16.90;99.90;;;;;;5004278;28;20026;-81
2023/06/28 08:27:13;;;;;;;2.00;0.80;;;16.80;99.90;;;;;;5003892;28;20044;-80
2023/06/28 08:29:39;;;;;;;3.65;0.82;;;16.80;99.90;;;;;;4981909;28;20164;-79
2023/06/28 08:32:05;;;;;;;3.28;0.90;;;16.90;99.90;;;;;;5004287;28;20036;-81
2023/06/28 08:34:31;;;;;;;3.28;0.90;;;17.00;99.90;;;;;;5007206;28;20030;-79
2023/06/28 08:36:57;;;;;;;2.75;0.90;;;17.00;99.90;;;;;;4982220;28;20026;-79
2023/06/28 08:39:22;;;;;;;2.63;0.80;;;17.10;99.90;;;;;;5002895;28;20108;-80
2023/06/28 08:41:50;;;;;;;1.77;0.80;;;17.30;99.90;;;;;;5002782;28;20136;-80
2023/06/28 08:44:19;;;;;;;2.70;0.70;;;17.30;99.90;;;;;;4991776;28;20034;-80
2023/06/28 08:46:47;;;;;;;4.38;0.80;;;17.40;99.90;;;;;;5035753;28;20497;-79
2023/06/28 08:49:14;;;;;;;3.25;0.70;;;17.60;99.90;;;;;;4994997;28;20034;-80
2023/06/28 08:51:40;;;;;;;3.13;0.68;;;17.70;99.90;;;;;;5002565;28;20346;-80
2023/06/28 08:54:08;;;;;;;3.13;0.73;;;17.70;99.90;;;;;;5003624;28;20025;-80
2023/06/28 08:56:35;;;;;;;3.00;0.90;;;17.80;99.90;;;;;;5000597;28;20228;-80
2023/06/28 08:59:02;;;;;;;3.00;0.90;;;17.70;99.90;;;;;;5000950;28;20029;-80
2023/06/28 09:01:29;;;;;;;3.38;0.80;;;17.80;99.90;;;;;;5003227;28;20033;-80
2023/06/28 09:03:56;;;;;;;2.97;0.60;;;17.80;99.90;;;;;;5003921;28;20085;-80
2023/06/28 09:06:22;;;;;;;2.40;0.70;;;17.90;99.90;;;;;;5033395;28;20143;-80
2023/06/28 09:08:48;;;;;;;3.42;0.80;;;18.00;99.90;;;;;;4984160;28;20061;-80
2023/06/28 09:11:16;;;;;;;3.42;0.63;;;17.90;99.90;;;;;;5001394;28;20030;-80
2023/06/28 09:13:43;;;;;;;2.42;0.60;;;18.00;99.90;;;;;;5003364;28;20323;-81
2023/06/28 09:16:10;;;;;;;2.35;0.85;;;18.00;99.90;;;;;;5002987;28;20121;-82
2023/06/28 09:18:36;;;;;;;5.65;0.80;;;18.10;99.90;;;;;;4999225;28;20034;-80
2023/06/28 09:21:02;;;;;;;4.07;1.65;;;18.10;99.90;;;;;;5003655;28;20092;-81
2023/06/28 09:23:30;;;;;;;3.47;1.08;;;17.80;99.90;;;;;;4996335;28;20658;-81
2023/06/28 09:25:56;;;;;;;3.50;1.15;;;17.80;99.90;;;;;;4979239;28;20037;-82
2023/06/28 09:28:23;;;;;;;3.22;1.05;;;17.80;99.90;;;;;;5034449;28;20030;-81
2023/06/28 09:30:56;;;;;;;5.00;0.98;;;17.60;99.90;;;;;;5003490;28;20026;-81
2023/06/28 09:33:23;;;;;;;2.47;0.95;;;17.70;99.90;;;;;;5016668;28;20033;-80
2023/06/28 09:35:56;;;;;;;4.05;0.93;;;17.80;99.90;;;;;;5000192;28;20434;-80
2023/06/28 09:38:22;;;;;;;3.78;0.80;;;17.90;99.90;;;;;;5002375;28;20491;-80
2023/06/28 09:40:59;;;;;;;4.72;0.82;;;17.90;99.90;;;;;;4999418;28;20573;-81
2023/06/28 09:43:34;;;;;;;1.65;0.60;;;18.00;99.90;;;;;;4998570;28;20168;-81
2023/06/28 09:46:18;;;;;;;1.88;0.70;;;18.00;99.90;;;;;;5035807;28;20037;-81
2023/06/28 09:48:49;;;;;;;2.30;1.00;;;18.00;99.90;;;;;;5012977;28;20030;-81
2023/06/28 09:51:16;;;;;;;2.63;0.55;;;18.00;99.90;;;;;;5010546;28;20053;-81
2023/06/28 09:53:56;;;;;;;3.95;0.68;;;18.20;99.90;;;;;;5016538;28;20732;-78
2023/06/28 09:56:33;;;;;;;6.47;0.90;;;18.30;99.90;;;;;;5017452;28;20030;-78
2023/06/28 09:59:07;;;;;;;1.70;0.70;;;18.30;99.90;;;;;;5017712;28;20026;-81
2023/06/28 10:01:39;;;;;;;3.60;0.90;;;18.20;99.90;;;;;;4981958;28;20136;-80
2023/06/28 10:04:11;;;;;;;3.05;0.80;;;18.40;99.90;;;;;;5018025;28;20036;-80
2023/06/28 10:06:39;;;;;;;2.58;0.70;;;18.40;99.90;;;;;;5006049;28;20037;-80
2023/06/28 10:09:04;;;;;;;4.68;0.70;;;18.50;99.90;;;;;;5002484;28;20296;-79
2023/06/28 10:11:34;;;;;;;4.22;0.80;;;18.70;99.90;;;;;;5036637;28;20132;-80
2023/06/28 10:14:02;;;;;;;2.55;0.60;;;18.70;99.90;;;;;;5002006;28;20034;-80
2023/06/28 10:16:32;;;;;;;2.85;0.80;;;18.80;99.90;;;;;;5005197;28;20479;-80
2023/06/28 10:18:59;;;;;;;3.15;0.77;;;19.10;99.90;;;;;;5004627;28;20041;-80
2023/06/28 10:21:27;;;;;;;3.05;0.70;;;19.20;99.90;;;;;;5005165;28;20149;-80
2023/06/28 10:23:54;;;;;;;3.63;1.08;;;19.30;99.90;;;;;;5005972;28;20483;-79
2023/06/28 10:26:21;;;;;;;6.20;0.82;;;19.30;99.90;;;;;;5005184;28;20372;-80
2023/06/28 10:28:49;;;;;;;5.18;0.90;;;19.30;99.90;;;;;;5005932;28;20026;-80
2023/06/28 10:31:16;;;;;;;3.85;0.70;;;19.60;99.90;;;;;;5005101;28;20038;-80
2023/06/28 10:33:43;;;;;;;3.45;0.70;;;19.90;99.90;;;;;;5005759;28;20356;-80
2023/06/28 10:36:09;;;;;;;2.83;0.98;;;20.00;99.90;;;;;;5019672;28;20058;-80
2023/06/28 10:38:43;;;;;;;4.15;1.05;;;20.10;99.90;;;;;;5001525;28;20435;-79
2023/06/28 10:41:13;;;;;;;3.00;1.00;;;20.30;99.90;;;;;;5006242;28;20038;-80
2023/06/28 10:43:39;;;;;;;4.15;0.85;;;20.20;99.90;;;;;;4979080;28;20069;-80
2023/06/28 10:46:24;;;;;;;4.03;0.90;;;20.40;99.90;;;;;;5005084;28;20486;-80
2023/06/28 10:48:57;;;;;;;3.03;1.00;;;20.30;99.90;;;;;;5004939;28;20116;-80
2023/06/28 10:51:27;;;;;;;3.50;1.00;;;20.60;99.90;;;;;;5005415;28;20084;-81
2023/06/28 10:54:05;;;;;;;3.20;0.70;;;20.80;99.90;;;;;;4984963;28;20095;-80
2023/06/28 10:56:42;;;;;;;2.40;1.05;;;20.80;99.90;;;;;;5004748;28;20387;-80
2023/06/28 10:59:08;;;;;;;3.22;0.80;;;20.60;99.90;;;;;;5004443;28;20026;-80
2023/06/28 11:01:51;;;;;;;2.72;1.23;;;20.90;99.90;;;;;;5004953;28;20393;-81
2023/06/28 11:04:25;;;;;;;8.68;1.95;;;21.00;99.90;;;;;;5014871;28;20033;-80
2023/06/28 11:07:02;;;;;;;4.30;1.50;;;20.90;99.90;;;;;;5002690;28;20490;-80
2023/06/28 11:09:28;;;;;;;4.85;1.98;;;21.20;99.90;;;;;;5035325;28;20140;-80
2023/06/28 11:11:59;;;;;;;2.63;1.15;;;21.30;99.90;;;;;;5003152;28;20121;-80
2023/06/28 11:14:31;;;;;;;4.55;1.05;;;21.50;99.90;;;;;;5019088;28;20167;-79
2023/06/28 11:17:07;;;;;;;5.25;1.85;;;21.60;99.90;;;;;;4999793;28;20466;-80
2023/06/28 11:19:33;;;;;;;4.38;0.93;;;21.80;99.90;;;;;;4997324;28;20474;-80
2023/06/28 11:22:01;;;;;;;3.38;1.17;;;22.30;99.90;;;;;;5003692;28;20038;-80
2023/06/28 11:24:33;;;;;;;4.35;1.77;;;22.50;99.90;;;;;;5035498;28;20510;-80
2023/06/28 11:26:59;;;;;;;6.43;2.53;;;22.10;99.90;;;;;;5004001;28;20033;-81
2023/06/28 11:29:25;;;;;;;4.85;1.65;;;21.70;99.90;;;;;;5001560;28;20100;-80
2023/06/28 11:31:52;;;;;;;2.63;1.20;;;22.20;99.90;;;;;;4988162;28;20045;-80
2023/06/28 11:34:19;;;;;;;4.32;1.15;;;22.60;99.90;;;;;;5004800;28;20112;-80
2023/06/28 11:36:47;;;;;;;3.33;0.82;;;22.70;99.90;;;;;;4983099;28;20149;-80
2023/06/28 11:39:21;;;;;;;3.20;0.90;;;22.90;99.90;;;;;;5018962;28;20423;-80
2023/06/28 11:41:47;;;;;;;3.92;1.48;;;22.80;99.90;;;;;;4998440;28;20045;-80
2023/06/28 11:44:13;;;;;;;3.75;1.15;;;22.20;99.90;;;;;;5003530;28;20113;-80
2023/06/28 11:46:41;;;;;;;3.67;0.85;;;22.10;99.90;;;;;;4998596;28;20616;-80
2023/06/28 11:49:08;;;;;;;1.77;0.70;;;22.20;99.90;;;;;;5001469;28;20395;-80
2023/06/28 11:51:35;;;;;;;2.15;0.70;;;22.20;99.90;;;;;;4997172;28;20030;-80
2023/06/28 11:54:01;;;;;;;5.43;1.58;;;22.10;99.90;;;;;;5004548;28;20029;-80
2023/06/28 11:56:42;;;;;;;5.30;1.30;;;21.90;99.90;;;;;;5035008;28;20045;-79
2023/06/28 11:59:16;;;;;;;1.95;0.80;;;21.60;99.90;;;;;;5002788;28;20113;-80
2023/06/28 12:01:42;;;;;;;4.00;1.05;;;21.70;99.90;;;;;;5035351;28;20061;-80
2023/06/28 12:04:21;;;;;;;3.00;1.23;;;21.70;99.90;;;;;;4998387;28;20084;-79
2023/06/28 12:06:47;;;;;;;3.92;1.20;;;21.70;99.90;;;;;;5018671;28;20045;-80
2023/06/28 12:09:33;;;;;;;2.25;0.88;;;21.60;99.90;;;;;;5003946;28;20026;-80
2023/06/28 12:12:02;;;;;;;2.47;0.70;;;21.40;99.90;;;;;;4982435;28;20026;-80
2023/06/28 12:14:30;;;;;;;3.10;1.42;;;21.50;99.90;;;;;;5003290;28;20022;-79
2023/06/28 12:16:57;;;;;;;3.15;1.10;;;21.70;99.90;;;;;;5002310;28;20026;-80
2023/06/28 12:19:28;;;;;;;4.45;1.13;;;21.70;99.90;;;;;;4979321;28;20512;-80
2023/06/28 12:21:54;;;;;;;3.42;1.38;;;21.70;99.90;;;;;;5018242;28;20129;-80
2023/06/28 12:24:26;;;;;;;3.38;1.10;;;21.80;99.90;;;;;;4984697;28;20471;-80
2023/06/28 12:26:54;;;;;;;3.80;1.08;;;21.70;99.90;;;;;;5034002;28;20034;-80
2023/06/28 12:29:21;;;;;;;5.03;1.70;;;21.80;99.90;;;;;;5002954;28;20037;-81
2023/06/28 12:31:52;;;;;;;3.47;1.33;;;21.70;99.90;;;;;;4999376;28;20519;-79
2023/06/28 12:34:31;;;;;;;4.18;1.38;;;21.70;99.90;;;;;;5007797;28;20026;-80
2023/06/28 12:37:11;;;;;;;2.85;1.15;;;21.90;99.90;;;;;;5004196;28;20409;-80
2023/06/28 12:39:43;;;;;;;4.95;1.08;;;21.80;99.90;;;;;;5002738;28;20021;-80
2023/06/28 12:42:10;;;;;;;3.10;1.25;;;22.10;99.90;;;;;;5033159;28;20116;-80
2023/06/28 12:44:56;;;;;;;2.47;1.15;;;22.30;99.90;;;;;;5002679;28;20038;-80
2023/06/28 12:47:27;;;;;;;4.10;1.48;;;22.40;99.90;;;;;;5002844;28;20447;-81
2023/06/28 12:49:54;;;;;;;4.35;1.30;;;22.50;99.90;;;;;;5034135;28;20018;-80